createdAt,value
2023-02-11T00:01:18.326Z,100649.56
2023-02-11T00:03:45.018Z,100647.09
2023-02-11T00:06:12.003Z,100638.09
2023-02-11T00:08:39.793Z,100638.81
2023-02-11T00:11:07.528Z,100638.97
2023-02-11T00:13:34.311Z,100637.41
2023-02-11T00:16:17.324Z,100634.97
2023-02-11T00:18:44.032Z,100635.56
2023-02-11T00:21:13.950Z,100644.56
2023-02-11T00:23:40.906Z,100645.00
2023-02-11T00:26:21.746Z,100640.50
2023-02-11T00:28:50.360Z,100634.59
2023-02-11T00:31:19.434Z,100630.88
2023-02-11T00:33:46.771Z,100631.41
2023-02-11T00:36:22.122Z,100632.69
2023-02-11T00:38:50.973Z,100628.41
2023-02-11T00:41:18.699Z,100629.00
2023-02-11T00:43:45.920Z,100626.53
2023-02-11T00:46:13.213Z,100631.41
2023-02-11T00:48:40.484Z,100629.78
2023-02-11T00:51:07.508Z,100637.38
2023-02-11T00:53:35.144Z,100629.94
2023-02-11T00:56:02.338Z,100636.16
2023-02-11T00:58:29.277Z,100637.44
2023-02-11T01:00:56.060Z,100628.88
2023-02-11T01:03:23.462Z,100620.03
2023-02-11T01:05:50.476Z,100631.69
2023-02-11T01:08:17.585Z,100619.72
2023-02-11T01:10:44.182Z,100620.31
2023-02-11T01:13:11.052Z,100621.22
2023-02-11T01:15:37.798Z,100619.38
2023-02-11T01:18:05.634Z,100616.25
2023-02-11T01:20:32.418Z,100605.38
2023-02-11T01:22:58.986Z,100608.16
2023-02-11T01:25:28.560Z,100595.97
2023-02-11T01:27:55.202Z,100587.47
2023-02-11T01:30:21.875Z,100596.25
2023-02-11T01:32:48.478Z,100595.16
2023-02-11T01:35:15.121Z,100588.63
2023-02-11T01:37:42.037Z,100587.97
2023-02-11T01:40:17.144Z,100585.84
2023-02-11T01:42:43.848Z,100579.31
2023-02-11T01:46:00.460Z,100585.19
2023-02-11T01:48:47.996Z,100561.31
2023-02-11T01:51:22.272Z,100569.19
2023-02-11T01:54:09.480Z,100561.25
2023-02-11T01:57:01.626Z,100551.47
2023-02-11T01:59:37.676Z,100554.88
2023-02-11T02:02:10.808Z,100558.50
2023-02-11T02:04:49.313Z,100553.25
2023-02-11T02:07:28.274Z,100556.94
2023-02-11T02:10:03.879Z,100559.47
2023-02-11T02:12:30.679Z,100547.28
2023-02-11T02:15:18.499Z,100553.03
2023-02-11T02:18:12.963Z,100550.75
2023-02-11T02:21:44.448Z,100571.22
2023-02-11T02:24:39.138Z,100568.38
2023-02-11T02:27:34.167Z,100566.53
2023-02-11T02:30:20.291Z,100558.56
2023-02-11T02:33:22.468Z,100568.09
2023-02-11T02:36:24.388Z,100559.63
2023-02-11T02:39:18.375Z,100565.63
2023-02-11T02:41:47.898Z,100550.94
2023-02-11T02:44:14.511Z,100561.19
2023-02-11T02:46:41.197Z,100568.19
2023-02-11T02:49:14.425Z,100573.88
2023-02-11T02:52:15.367Z,100572.25
2023-02-11T02:55:13.163Z,100569.91
2023-02-11T02:57:59.395Z,100567.41
2023-02-11T03:00:50.777Z,100568.97
2023-02-11T03:03:33.918Z,100560.28
2023-02-11T03:06:05.017Z,100562.59
2023-02-11T03:08:39.056Z,100550.72
2023-02-11T03:11:08.757Z,100545.72
2023-02-11T03:13:39.439Z,100542.66
2023-02-11T03:16:18.829Z,100530.50
2023-02-11T03:18:53.330Z,100533.56
2023-02-11T03:21:20.686Z,100528.06
2023-02-11T03:23:55.583Z,100519.06
2023-02-11T03:26:46.838Z,100500.13
2023-02-11T03:29:21.931Z,100481.78
2023-02-11T03:32:16.975Z,100466.56
2023-02-11T03:35:00.241Z,100475.84
2023-02-11T03:37:37.551Z,100474.28
2023-02-11T03:40:13.451Z,100474.66
2023-02-11T03:42:52.940Z,100472.81
2023-02-11T03:45:22.718Z,100467.53
2023-02-11T03:47:55.961Z,100458.84
2023-02-11T03:50:24.329Z,100459.47
2023-02-11T03:52:51.485Z,100474.72
2023-02-11T03:55:20.992Z,100482.22
2023-02-11T03:57:47.901Z,100491.06
2023-02-11T04:00:15.239Z,100500.72
2023-02-11T04:02:42.322Z,100496.06
2023-02-11T04:05:16.001Z,100497.59
2023-02-11T04:07:42.766Z,100494.34
2023-02-11T04:10:11.402Z,100510.63
2023-02-11T04:12:38.142Z,100516.44
2023-02-11T04:15:06.152Z,100525.41
2023-02-11T04:17:32.871Z,100517.34
2023-02-11T04:19:59.456Z,100521.25
2023-02-11T04:22:26.194Z,100513.59
2023-02-11T04:24:57.408Z,100501.53
2023-02-11T04:27:24.235Z,100486.00
2023-02-11T04:29:50.788Z,100481.56
2023-02-11T04:32:17.419Z,100486.53
2023-02-11T04:34:44.096Z,100480.34
2023-02-11T04:37:10.765Z,100492.47
2023-02-11T04:39:37.465Z,100489.00
2023-02-11T04:42:04.294Z,100486.53
2023-02-11T04:44:31.110Z,100488.06
2023-02-11T04:47:00.649Z,100489.59
2023-02-11T04:49:27.266Z,100495.19
2023-02-11T04:51:53.919Z,100498.06
2023-02-11T04:54:20.543Z,100483.13
2023-02-11T04:56:47.354Z,100469.25
2023-02-11T04:59:14.081Z,100465.09
2023-02-11T05:01:41.204Z,100473.72
2023-02-11T05:04:07.883Z,100482.47
2023-02-11T05:06:34.676Z,100481.47
2023-02-11T05:09:01.431Z,100469.50
2023-02-11T05:11:28.045Z,100465.81
2023-02-11T05:13:54.709Z,100484.00
2023-02-11T05:16:21.506Z,100490.28
2023-02-11T05:18:52.470Z,100493.25
2023-02-11T05:21:19.973Z,100484.16
2023-02-11T05:23:46.963Z,100487.97
2023-02-11T05:26:14.744Z,100500.03
2023-02-11T05:28:42.561Z,100486.25
2023-02-11T05:31:10.058Z,100487.59
2023-02-11T05:33:36.787Z,100492.25
2023-02-11T05:36:08.354Z,100487.31
2023-02-11T05:38:35.752Z,100484.75
2023-02-11T05:41:03.895Z,100478.50
2023-02-11T05:43:30.754Z,100477.59
2023-02-11T05:45:57.540Z,100475.47
2023-02-11T05:48:24.224Z,100487.59
2023-02-11T05:50:50.795Z,100489.75
2023-02-11T05:53:17.545Z,100500.31
2023-02-11T05:55:44.369Z,100503.88
2023-02-11T05:58:10.967Z,100506.88
2023-02-11T06:00:38.145Z,100503.03
2023-02-11T06:03:04.898Z,100503.81
2023-02-11T06:05:33.154Z,100502.34
2023-02-11T06:08:05.062Z,100501.88
2023-02-11T06:10:31.693Z,100489.97
2023-02-11T06:12:58.304Z,100478.84
2023-02-11T06:15:24.988Z,100471.66
2023-02-11T06:17:51.945Z,100456.47
2023-02-11T06:20:18.836Z,100465.94
2023-02-11T06:22:46.046Z,100458.41
2023-02-11T06:25:13.183Z,100455.72
2023-02-11T06:27:39.801Z,100464.25
2023-02-11T06:30:08.108Z,100471.91
2023-02-11T06:32:44.042Z,100474.56
2023-02-11T06:35:12.699Z,100479.97
2023-02-11T06:37:42.908Z,100464.16
2023-02-11T06:40:12.406Z,100461.34
2023-02-11T06:42:39.521Z,100451.41
2023-02-11T06:45:09.419Z,100458.13
2023-02-11T06:47:37.273Z,100462.00
2023-02-11T06:50:05.715Z,100464.91
2023-02-11T06:52:32.968Z,100462.38
2023-02-11T06:54:59.819Z,100459.31
2023-02-11T06:57:26.376Z,100464.34
2023-02-11T06:59:54.162Z,100471.38
2023-02-11T07:02:21.235Z,100463.69
2023-02-11T07:04:47.997Z,100462.50
2023-02-11T07:07:14.639Z,100471.13
2023-02-11T07:09:41.446Z,100464.41
2023-02-11T07:12:11.176Z,100464.22
2023-02-11T07:14:38.110Z,100469.44
2023-02-11T07:17:05.206Z,100483.84
2023-02-11T07:19:31.922Z,100482.13
2023-02-11T07:21:58.562Z,100483.91
2023-02-11T07:24:25.231Z,100481.72
2023-02-11T07:26:53.844Z,100493.66
2023-02-11T07:29:20.514Z,100488.53
2023-02-11T07:31:50.351Z,100485.66
2023-02-11T07:34:17.115Z,100488.78
2023-02-11T07:36:44.945Z,100491.41
2023-02-11T07:39:11.545Z,100503.25
2023-02-11T07:41:38.833Z,100501.81
2023-02-11T07:44:07.258Z,100505.94
2023-02-11T07:46:45.166Z,100508.56
2023-02-11T07:49:21.788Z,100505.09
2023-02-11T07:51:58.389Z,100509.41
2023-02-11T07:54:35.208Z,100511.22
2023-02-11T07:57:06.001Z,100524.59
2023-02-11T07:59:37.372Z,100531.31
2023-02-11T08:02:09.415Z,100535.38
2023-02-11T08:04:38.884Z,100528.78
2023-02-11T08:07:10.765Z,100531.34
2023-02-11T08:09:38.489Z,100537.97
2023-02-11T08:12:07.893Z,100534.59
2023-02-11T08:14:40.449Z,100535.94
2023-02-11T08:17:12.676Z,100536.75
2023-02-11T08:19:49.256Z,100539.75
2023-02-11T08:22:15.979Z,100544.31
2023-02-11T08:24:42.846Z,100547.66
2023-02-11T08:27:14.596Z,100545.69
2023-02-11T08:29:41.494Z,100551.69
2023-02-11T08:32:08.178Z,100545.78
2023-02-11T08:34:35.010Z,100541.53
2023-02-11T08:37:01.878Z,100549.09
2023-02-11T08:39:38.589Z,100550.03
2023-02-11T08:42:05.270Z,100560.16
2023-02-11T08:44:31.830Z,100558.91
2023-02-11T08:46:58.504Z,100560.03
2023-02-11T08:49:25.198Z,100558.31
2023-02-11T08:51:51.932Z,100559.44
2023-02-11T08:54:18.885Z,100555.13
2023-02-11T08:56:45.521Z,100548.91
2023-02-11T08:59:15.295Z,100560.28
2023-02-11T09:01:42.033Z,100562.53
2023-02-11T09:04:10.254Z,100563.50
2023-02-11T09:06:36.847Z,100568.81
2023-02-11T09:09:03.546Z,100572.50
2023-02-11T09:11:35.500Z,100583.22
2023-02-11T09:14:03.993Z,100580.47
2023-02-11T09:16:34.583Z,100595.50
2023-02-11T09:19:03.666Z,100588.97
2023-02-11T09:21:30.921Z,100584.88
2023-02-11T09:23:57.676Z,100583.47
2023-02-11T09:26:30.795Z,100575.38
2023-02-11T09:28:58.178Z,100573.81
2023-02-11T09:31:28.254Z,100575.09
2023-02-11T09:34:01.905Z,100576.94
2023-02-11T09:36:33.639Z,100574.63
2023-02-11T09:39:02.104Z,100581.06
2023-02-11T09:42:12.502Z,100583.88
2023-02-11T09:44:39.577Z,100590.28
2023-02-11T09:47:32.235Z,100593.91
2023-02-11T09:50:18.460Z,100591.88
2023-02-11T09:53:00.317Z,100593.19
2023-02-11T09:55:37.897Z,100607.78
2023-02-11T09:58:13.006Z,100602.44
2023-02-11T10:01:26.244Z,100604.75
2023-02-11T10:04:41.356Z,100602.19
2023-02-11T10:07:22.960Z,100603.75
2023-02-11T10:10:22.065Z,100609.13
2023-02-11T10:13:09.176Z,100613.75
2023-02-11T10:16:14.755Z,100609.63
2023-02-11T10:19:07.127Z,100601.19
2023-02-11T10:22:09.482Z,100604.25
2023-02-11T10:24:37.385Z,100599.13
2023-02-11T10:27:19.514Z,100599.16
2023-02-11T10:30:02.684Z,100590.16
2023-02-11T10:32:43.234Z,100598.38
2023-02-11T10:35:22.180Z,100600.94
2023-02-11T10:37:49.473Z,100596.56
2023-02-11T10:40:23.681Z,100607.56
2023-02-11T10:42:59.941Z,100596.31
2023-02-11T10:45:38.741Z,100593.47
2023-02-11T10:48:39.704Z,100603.22
2023-02-11T10:51:26.673Z,100596.81
2023-02-11T10:54:07.824Z,100584.25
2023-02-11T10:56:38.097Z,100595.78
2023-02-11T10:59:27.327Z,100591.66
2023-02-11T11:02:05.840Z,100587.09
2023-02-11T11:04:45.128Z,100591.22
2023-02-11T11:07:21.523Z,100596.06
2023-02-11T11:10:15.801Z,100602.22
2023-02-11T11:12:45.123Z,100588.34
2023-02-11T11:15:27.046Z,100608.59
2023-02-11T11:18:22.831Z,100607.84
2023-02-11T11:21:05.698Z,100607.06
2023-02-11T11:23:34.841Z,100610.41
2023-02-11T11:26:10.441Z,100602.19
2023-02-11T11:28:53.587Z,100602.97
2023-02-11T11:31:54.909Z,100606.03
2023-02-11T11:34:30.532Z,100606.81
2023-02-11T11:36:59.582Z,100604.25
2023-02-11T11:39:32.965Z,100615.81
2023-02-11T11:42:05.217Z,100614.25
2023-02-11T11:44:37.666Z,100604.19
2023-02-11T11:47:24.918Z,100613.94
2023-02-11T11:50:09.566Z,100600.44
2023-02-11T11:52:59.999Z,100598.34
2023-02-11T11:55:35.895Z,100602.19
2023-02-11T11:58:02.622Z,100599.66
2023-02-11T12:00:58.943Z,100603.25
2023-02-11T12:03:46.494Z,100601.72
2023-02-11T12:06:23.934Z,100605.28
2023-02-11T12:09:12.882Z,100599.66
2023-02-11T12:12:17.112Z,100593.00
2023-02-11T12:14:56.016Z,100588.88
2023-02-11T12:18:01.170Z,100586.31
2023-02-11T12:21:29.340Z,100589.38
2023-02-11T12:24:31.561Z,100584.78
2023-02-11T12:27:06.457Z,100587.09
2023-02-11T12:30:18.718Z,100589.91
2023-02-11T12:33:19.679Z,100585.56
2023-02-11T12:35:58.208Z,100592.47
2023-02-11T12:38:54.184Z,100594.78
2023-02-11T12:42:02.064Z,100592.69
2023-02-11T12:45:18.494Z,100596.28
2023-02-11T12:48:17.621Z,100596.06
2023-02-11T12:51:00.480Z,100592.75
2023-02-11T12:54:09.289Z,100590.16
2023-02-11T12:57:17.512Z,100578.13
2023-02-11T13:00:19.065Z,100576.31
2023-02-11T13:02:45.714Z,100581.16
2023-02-11T13:05:23.475Z,100571.75
2023-02-11T13:07:54.283Z,100574.97
2023-02-11T13:10:26.804Z,100571.19
2023-02-11T13:13:14.080Z,100563.75
2023-02-11T13:15:44.107Z,100561.66
2023-02-11T13:18:44.768Z,100556.53
2023-02-11T13:21:50.192Z,100567.59
2023-02-11T13:24:47.868Z,100561.94
2023-02-11T13:27:40.509Z,100563.75
2023-02-11T13:30:32.314Z,100556.53
2023-02-11T13:33:00.778Z,100564.72
2023-02-11T13:35:30.332Z,100552.63
2023-02-11T13:37:59.930Z,100548.78
2023-02-11T13:40:31.036Z,100543.69
2023-02-11T13:43:01.944Z,100547.81
2023-02-11T13:45:35.684Z,100559.13
2023-02-11T13:48:08.200Z,100564.75
2023-02-11T13:50:47.798Z,100559.63
2023-02-11T13:53:18.296Z,100562.16
2023-02-11T13:55:54.579Z,100557.53
2023-02-11T13:58:27.142Z,100560.66
2023-02-11T14:00:54.487Z,100552.44
2023-02-11T14:03:47.600Z,100558.59
2023-02-11T14:06:40.552Z,100550.13
2023-02-11T14:09:10.286Z,100562.16
2023-02-11T14:11:44.576Z,100554.22
2023-02-11T14:14:31.797Z,100562.47
2023-02-11T14:16:58.637Z,100558.13
2023-02-11T14:19:38.140Z,100571.38
2023-02-11T14:22:27.955Z,100563.19
2023-02-11T14:25:00.802Z,100562.97
2023-02-11T14:27:43.741Z,100578.31
2023-02-11T14:30:16.453Z,100573.41
2023-02-11T14:33:27.253Z,100571.94
2023-02-11T14:36:20.034Z,100583.97
2023-02-11T14:38:56.290Z,100586.31
2023-02-11T14:41:29.646Z,100591.69
2023-02-11T14:44:04.880Z,100577.06
2023-02-11T14:46:33.529Z,100580.41
2023-02-11T14:49:05.106Z,100577.81
2023-02-11T14:51:40.213Z,100579.88
2023-02-11T14:54:25.068Z,100589.88
2023-02-11T14:57:20.711Z,100584.75
2023-02-11T15:00:05.586Z,100589.38
2023-02-11T15:02:38.200Z,100589.38
2023-02-11T15:05:26.039Z,100591.44
2023-02-11T15:07:59.853Z,100597.34
2023-02-11T15:10:41.740Z,100597.63
2023-02-11T15:13:17.606Z,100599.66
2023-02-11T15:15:46.595Z,100606.31
2023-02-11T15:18:22.576Z,100606.59
2023-02-11T15:20:50.512Z,100610.69
2023-02-11T15:23:27.188Z,100613.47
2023-02-11T15:25:56.188Z,100610.44
2023-02-11T15:28:29.808Z,100612.47
2023-02-11T15:31:02.854Z,100613.22
2023-02-11T15:33:30.965Z,100623.72
2023-02-11T15:36:01.972Z,100625.81
2023-02-11T15:38:30.425Z,100622.72
2023-02-11T15:41:02.376Z,100618.59
2023-02-11T15:43:49.144Z,100617.59
2023-02-11T15:46:19.786Z,100633.50
2023-02-11T15:48:54.766Z,100630.91
2023-02-11T15:51:32.782Z,100631.69
2023-02-11T15:54:02.749Z,100641.66
2023-02-11T15:56:44.819Z,100640.13
2023-02-11T15:59:30.926Z,100640.63
2023-02-11T16:02:09.694Z,100647.81
2023-02-11T16:04:37.074Z,100649.88
2023-02-11T16:07:05.012Z,100648.06
2023-02-11T16:09:36.358Z,100651.38
2023-02-11T16:12:23.684Z,100643.97
2023-02-11T16:14:50.262Z,100641.66
2023-02-11T16:17:26.047Z,100649.84
2023-02-11T16:19:54.188Z,100650.63
2023-02-11T16:22:35.140Z,100644.22
2023-02-11T16:25:02.201Z,100647.03
2023-02-11T16:27:40.734Z,100657.31
2023-02-11T16:30:33.226Z,100655.44
2023-02-11T16:32:59.995Z,100659.28
2023-02-11T16:35:26.620Z,100646.25
2023-02-11T16:37:54.738Z,100652.13
2023-02-11T16:40:23.004Z,100651.34
2023-02-11T16:42:50.633Z,100658.00
2023-02-11T16:45:17.251Z,100659.78
2023-02-11T16:47:43.948Z,100660.53
2023-02-11T16:50:21.601Z,100662.03
2023-02-11T16:52:48.865Z,100656.94
2023-02-11T16:55:15.696Z,100659.50
2023-02-11T16:57:42.268Z,100666.13
2023-02-11T17:00:10.246Z,100659.97
2023-02-11T17:02:37.935Z,100655.19
2023-02-11T17:05:08.197Z,100663.06
2023-02-11T17:07:35.238Z,100664.88
2023-02-11T17:10:02.005Z,100673.03
2023-02-11T17:12:28.733Z,100669.19
2023-02-11T17:14:55.393Z,100673.31
2023-02-11T17:17:23.552Z,100674.31
2023-02-11T17:19:51.000Z,100675.34
2023-02-11T17:22:20.092Z,100669.72
2023-02-11T17:24:46.673Z,100669.44
2023-02-11T17:27:13.841Z,100674.06
2023-02-11T17:29:40.503Z,100670.97
2023-02-11T17:32:14.902Z,100676.06
2023-02-11T17:34:41.577Z,100678.75
2023-02-11T17:37:11.095Z,100680.75
2023-02-11T17:39:39.254Z,100681.44
2023-02-11T17:42:06.743Z,100682.00
2023-02-11T17:44:33.868Z,100680.94
2023-02-11T17:47:00.508Z,100696.03
2023-02-11T17:49:27.420Z,100691.44
2023-02-11T17:51:54.080Z,100694.53
2023-02-11T17:54:21.045Z,100695.03
2023-02-11T17:56:50.636Z,100684.47
2023-02-11T17:59:17.623Z,100689.66
2023-02-11T18:01:46.520Z,100692.75
2023-02-11T18:04:17.620Z,100697.66
2023-02-11T18:06:50.195Z,100691.16
2023-02-11T18:09:16.803Z,100691.00
2023-02-11T18:11:44.816Z,100693.84
2023-02-11T18:14:14.173Z,100704.97
2023-02-11T18:16:43.417Z,100706.28
2023-02-11T18:19:11.333Z,100699.34
2023-02-11T18:21:37.972Z,100697.28
2023-02-11T18:24:07.038Z,100704.97
2023-02-11T18:26:34.718Z,100700.38
2023-02-11T18:29:01.401Z,100697.28
2023-02-11T18:31:28.221Z,100706.00
2023-02-11T18:33:54.987Z,100697.56
2023-02-11T18:36:22.857Z,100698.06
2023-02-11T18:38:49.545Z,100704.44
2023-02-11T18:41:16.155Z,100698.34
2023-02-11T18:43:42.975Z,100700.88
2023-02-11T18:46:14.339Z,100706.28
2023-02-11T18:48:41.644Z,100711.88
2023-02-11T18:51:18.638Z,100710.84
2023-02-11T18:53:45.925Z,100709.59
2023-02-11T18:56:18.844Z,100709.59
2023-02-11T18:58:45.817Z,100720.63
2023-02-11T19:01:20.784Z,100716.78
2023-02-11T19:03:48.203Z,100710.34
2023-02-11T19:06:25.263Z,100725.72
2023-02-11T19:08:59.905Z,100723.88
2023-02-11T19:11:46.782Z,100715.97
2023-02-11T19:14:22.342Z,100721.59
2023-02-11T19:16:52.591Z,100723.88
2023-02-11T19:19:20.558Z,100718.25
2023-02-11T19:21:48.811Z,100723.41
2023-02-11T19:24:18.841Z,100735.69
2023-02-11T19:26:47.536Z,100731.34
2023-02-11T19:29:14.944Z,100723.88
2023-02-11T19:31:43.291Z,100717.22
2023-02-11T19:34:12.060Z,100723.34
2023-02-11T19:36:38.678Z,100727.44
2023-02-11T19:39:07.067Z,100721.81
2023-02-11T19:41:34.388Z,100727.66
2023-02-11T19:44:02.412Z,100729.22
2023-02-11T19:46:34.606Z,100734.59
2023-02-11T19:49:02.054Z,100749.41
2023-02-11T19:51:30.101Z,100741.22
2023-02-11T19:53:59.157Z,100735.59
2023-02-11T19:56:28.442Z,100740.44
2023-02-11T19:58:55.521Z,100752.94
2023-02-11T20:01:25.013Z,100750.88
2023-02-11T20:03:54.472Z,100750.94
2023-02-11T20:06:31.792Z,100754.75
2023-02-11T20:09:03.419Z,100755.38
2023-02-11T20:11:31.362Z,100760.50
2023-02-11T20:14:01.073Z,100755.38
2023-02-11T20:16:46.973Z,100741.56
2023-02-11T20:19:21.872Z,100736.97
2023-02-11T20:21:52.648Z,100738.22
2023-02-11T20:24:20.498Z,100745.41
2023-02-11T20:26:48.334Z,100745.41
2023-02-11T20:29:17.384Z,100748.00
2023-02-11T20:31:44.418Z,100743.13
2023-02-11T20:34:12.181Z,100733.13
2023-02-11T20:36:40.365Z,100742.00
2023-02-11T20:39:08.089Z,100736.88
2023-02-11T20:41:39.581Z,100753.00
2023-02-11T20:44:09.794Z,100749.63
2023-02-11T20:46:40.590Z,100751.63
2023-02-11T20:49:09.960Z,100751.88
2023-02-11T20:51:37.203Z,100744.19
2023-02-11T20:54:05.954Z,100746.19
2023-02-11T20:56:36.631Z,100747.19
2023-02-11T20:59:05.111Z,100745.00
2023-02-11T21:01:35.574Z,100751.59
2023-02-11T21:04:10.366Z,100760.06
2023-02-11T21:06:42.781Z,100761.16
2023-02-11T21:09:13.799Z,100764.38
2023-02-11T21:11:41.519Z,100774.94
2023-02-11T21:14:09.754Z,100773.75
2023-02-11T21:16:36.460Z,100789.19
2023-02-11T21:19:03.880Z,100794.31
2023-02-11T21:21:31.356Z,100785.53
2023-02-11T21:23:58.580Z,100788.69
2023-02-11T21:26:25.905Z,100793.13
2023-02-11T21:28:52.884Z,100795.63
2023-02-11T21:31:23.851Z,100810.81
2023-02-11T21:33:50.984Z,100805.22
2023-02-11T21:36:18.181Z,100801.09
2023-02-11T21:38:45.108Z,100808.03
2023-02-11T21:41:12.264Z,100817.56
2023-02-11T21:43:38.858Z,100829.69
2023-02-11T21:46:11.176Z,100823.06
2023-02-11T21:48:38.206Z,100820.75
2023-02-11T21:51:19.437Z,100824.25
2023-02-11T21:53:46.827Z,100824.47
2023-02-11T21:56:17.594Z,100820.09
2023-02-11T21:58:45.564Z,100828.97
2023-02-11T22:01:19.299Z,100833.31
2023-02-11T22:03:46.835Z,100833.84
2023-02-11T22:06:27.086Z,100825.44
2023-02-11T22:08:54.722Z,100833.31
2023-02-11T22:11:21.826Z,100829.88
2023-02-11T22:13:52.952Z,100831.75
2023-02-11T22:16:19.602Z,100826.97
2023-02-11T22:18:46.410Z,100831.34
2023-02-11T22:21:20.317Z,100827.19
2023-02-11T22:23:46.966Z,100827.34
2023-02-11T22:26:17.792Z,100818.22
2023-02-11T22:28:45.366Z,100818.22
2023-02-11T22:31:18.947Z,100818.91
2023-02-11T22:33:45.917Z,100812.50
2023-02-11T22:36:23.650Z,100818.91
2023-02-11T22:38:50.935Z,100826.56
2023-02-11T22:41:18.256Z,100817.69
2023-02-11T22:43:45.476Z,100808.19
2023-02-11T22:46:16.127Z,100809.81
2023-02-11T22:48:43.234Z,100815.72
2023-02-11T22:51:21.031Z,100821.91
2023-02-11T22:54:06.198Z,100813.19
2023-02-11T22:56:34.922Z,100821.34
2023-02-11T22:59:05.541Z,100830.34
2023-02-11T23:01:32.432Z,100828.63
2023-02-11T23:04:01.946Z,100845.50
2023-02-11T23:06:28.698Z,100850.13
2023-02-11T23:08:55.501Z,100842.94
2023-02-11T23:11:29.132Z,100848.56
2023-02-11T23:13:57.003Z,100847.72
2023-02-11T23:16:28.057Z,100853.34
2023-02-11T23:18:55.287Z,100850.81
2023-02-11T23:21:27.835Z,100856.44
2023-02-11T23:23:58.693Z,100853.88
2023-02-11T23:26:25.789Z,100849.59
2023-02-11T23:28:52.962Z,100847.94
2023-02-11T23:31:27.085Z,100846.59
2023-02-11T23:33:53.952Z,100848.88
2023-02-11T23:36:21.802Z,100853.28
2023-02-11T23:38:52.060Z,100852.19
2023-02-11T23:41:20.053Z,100854.59
2023-02-11T23:43:55.645Z,100855.31
2023-02-11T23:46:23.974Z,100851.97
2023-02-11T23:48:52.155Z,100859.81
2023-02-11T23:51:19.924Z,100852.16
2023-02-11T23:53:49.127Z,100848.38
2023-02-11T23:56:19.872Z,100842.84
2023-02-11T23:58:51.468Z,100836.09
